Time;durP1;ratioP1;P1;durP2;ratioP2;P2;SDS_P1;SDS_P2;PMS_P1;PMS_P2;Temp;Humidity;BMP_temperature;BMP_pressure;BME280_temperature;BME280_humidity;BME280_pressure;Samples;Min_cycle;Max_cycle;Signal;HPM_P1;HPM_P2
2021/10/01 00:01:55;;;;;;;16.53;11.13;;;11.50;99.90;;;;;;5093799;28;20257;-66
2021/10/01 00:04:22;;;;;;;19.00;11.40;;;11.50;99.90;;;;;;5093701;28;20216;-67
2021/10/01 00:06:49;;;;;;;17.23;11.43;;;11.50;99.90;;;;;;5093714;28;20538;-67
2021/10/01 00:09:18;;;;;;;15.40;11.27;;;11.40;99.90;;;;;;5093617;28;20215;-67
2021/10/01 00:11:51;;;;;;;16.30;11.33;;;11.40;99.90;;;;;;5093784;28;20299;-67
2021/10/01 00:14:18;;;;;;;15.70;11.17;;;11.40;99.90;;;;;;5093255;28;20277;-67
2021/10/01 00:16:45;;;;;;;13.20;11.33;;;11.30;99.90;;;;;;5092944;28;20319;-67
2021/10/01 00:19:12;;;;;;;16.33;11.30;;;11.30;99.90;;;;;;5093043;28;20209;-67
2021/10/01 00:21:39;;;;;;;21.00;12.57;;;11.30;99.90;;;;;;5093489;28;20218;-68
2021/10/01 00:24:08;;;;;;;13.60;10.97;;;11.30;99.90;;;;;;5093203;28;20657;-67
2021/10/01 00:26:37;;;;;;;19.13;12.33;;;11.30;99.90;;;;;;5092409;28;20205;-68
2021/10/01 00:29:05;;;;;;;16.17;11.63;;;11.30;99.90;;;;;;5092275;28;20275;-69
2021/10/01 00:31:32;;;;;;;15.17;11.20;;;11.20;99.90;;;;;;5090931;28;20234;-68
2021/10/01 00:34:01;;;;;;;19.27;12.07;;;11.20;99.90;;;;;;5092531;28;20230;-67
2021/10/01 00:36:28;;;;;;;17.67;12.53;;;11.20;99.90;;;;;;5092763;28;20697;-67
2021/10/01 00:38:55;;;;;;;15.83;10.90;;;11.20;99.90;;;;;;5084913;28;20244;-67
2021/10/01 00:41:21;;;;;;;19.37;11.40;;;11.20;99.90;;;;;;5093437;28;20212;-67
2021/10/01 00:43:50;;;;;;;17.17;11.67;;;11.20;99.90;;;;;;5092885;28;20677;-67
2021/10/01 00:46:16;;;;;;;16.47;12.33;;;11.20;99.90;;;;;;5092820;28;20227;-67
2021/10/01 00:48:43;;;;;;;19.90;12.20;;;11.20;99.90;;;;;;5081184;28;20232;-67
2021/10/01 00:51:11;;;;;;;18.47;12.43;;;11.10;99.90;;;;;;5087621;28;20202;-66
2021/10/01 00:53:38;;;;;;;14.53;10.73;;;11.10;99.90;;;;;;5084771;28;20208;-67
2021/10/01 00:56:05;;;;;;;16.37;12.23;;;11.10;99.90;;;;;;5087874;28;20200;-65
2021/10/01 00:58:32;;;;;;;15.20;12.00;;;11.10;99.90;;;;;;5092833;28;20208;-66
2021/10/01 01:01:09;;;;;;;15.60;11.40;;;11.10;99.90;;;;;;5092489;28;20216;-66
2021/10/01 01:03:40;;;;;;;15.57;12.23;;;11.00;99.90;;;;;;5092457;28;20213;-68
2021/10/01 01:06:15;;;;;;;17.27;12.13;;;11.00;99.90;;;;;;5092478;28;20213;-67
2021/10/01 01:08:52;;;;;;;15.30;10.80;;;11.00;99.90;;;;;;5091313;28;20203;-67
2021/10/01 01:11:27;;;;;;;14.20;11.37;;;11.00;99.90;;;;;;5092276;28;20204;-67
2021/10/01 01:14:02;;;;;;;16.50;12.20;;;10.90;99.90;;;;;;5092325;28;20208;-67
2021/10/01 01:16:36;;;;;;;16.10;11.83;;;10.90;99.90;;;;;;5091570;28;20204;-66
2021/10/01 01:19:08;;;;;;;19.07;11.93;;;10.90;99.90;;;;;;5092442;28;20295;-67
2021/10/01 01:21:54;;;;;;;15.87;12.03;;;10.90;99.90;;;;;;5087768;28;20201;-66
2021/10/01 01:24:46;;;;;;;16.30;11.27;;;10.90;99.90;;;;;;5085280;28;20207;-67
2021/10/01 01:27:19;;;;;;;16.80;11.43;;;10.80;99.90;;;;;;5085757;28;20243;-67
2021/10/01 01:29:59;;;;;;;16.97;12.13;;;10.80;99.90;;;;;;5078140;28;20205;-67
2021/10/01 01:32:32;;;;;;;15.93;12.10;;;10.80;99.90;;;;;;5092382;28;20203;-67
2021/10/01 01:35:05;;;;;;;18.03;11.80;;;10.80;99.90;;;;;;5091838;28;20644;-67
2021/10/01 01:37:38;;;;;;;15.93;11.40;;;10.80;99.90;;;;;;5090926;28;20232;-68
2021/10/01 01:40:08;;;;;;;13.80;11.33;;;10.80;99.90;;;;;;5092184;28;20204;-67
2021/10/01 01:42:35;;;;;;;16.10;12.03;;;10.80;99.90;;;;;;5092391;28;20559;-66
2021/10/01 01:45:04;;;;;;;17.03;11.90;;;10.70;99.90;;;;;;5091581;28;20668;-67
2021/10/01 01:47:33;;;;;;;18.53;12.77;;;10.70;99.90;;;;;;5090485;28;20209;-67
2021/10/01 01:50:01;;;;;;;18.00;11.93;;;10.70;99.90;;;;;;5091332;28;20308;-67
2021/10/01 01:52:28;;;;;;;15.53;11.13;;;10.60;99.90;;;;;;5089121;28;20207;-66
2021/10/01 01:54:57;;;;;;;15.00;12.33;;;10.60;99.90;;;;;;5092020;28;20715;-66
2021/10/01 01:57:24;;;;;;;17.43;11.80;;;10.50;99.90;;;;;;5091370;28;20287;-66
2021/10/01 01:59:52;;;;;;;15.00;11.90;;;10.50;99.90;;;;;;5092484;28;20215;-66
2021/10/01 02:02:20;;;;;;;20.00;12.10;;;10.50;99.90;;;;;;5088258;28;20212;-66
2021/10/01 02:04:49;;;;;;;16.90;12.03;;;10.40;99.90;;;;;;5091432;28;20293;-66
2021/10/01 02:07:18;;;;;;;14.30;11.03;;;10.40;99.90;;;;;;5091310;28;20208;-67
2021/10/01 02:09:46;;;;;;;16.13;12.57;;;10.30;99.90;;;;;;5091826;28;20197;-67
2021/10/01 02:12:14;;;;;;;14.80;11.97;;;10.40;99.90;;;;;;5091898;28;20208;-67
2021/10/01 02:14:43;;;;;;;16.97;12.63;;;10.30;99.90;;;;;;5091143;28;20220;-68
2021/10/01 02:17:13;;;;;;;17.10;12.17;;;10.30;99.90;;;;;;5090892;28;20292;-67
2021/10/01 02:19:42;;;;;;;16.13;11.63;;;10.20;99.90;;;;;;5090919;28;20240;-67
2021/10/01 02:22:12;;;;;;;17.23;12.60;;;10.30;99.90;;;;;;5082674;28;20656;-66
2021/10/01 02:24:39;;;;;;;20.53;11.87;;;10.30;99.90;;;;;;5090933;28;20211;-67
2021/10/01 02:27:09;;;;;;;16.73;12.20;;;10.20;99.90;;;;;;5090271;28;20709;-66
2021/10/01 02:29:45;;;;;;;17.37;12.27;;;10.20;99.90;;;;;;5091271;28;20219;-67
2021/10/01 02:32:20;;;;;;;17.13;12.30;;;10.20;99.90;;;;;;5091172;28;20234;-66
2021/10/01 02:34:47;;;;;;;16.77;12.50;;;10.30;99.90;;;;;;5090914;28;20217;-67
2021/10/01 02:37:17;;;;;;;18.07;11.90;;;10.20;99.90;;;;;;5091072;28;20243;-67
2021/10/01 02:39:48;;;;;;;15.87;11.40;;;10.20;99.90;;;;;;5090800;28;20208;-67
2021/10/01 02:42:16;;;;;;;15.40;11.30;;;10.20;99.90;;;;;;5079445;28;20653;-67
2021/10/01 02:44:45;;;;;;;17.97;12.23;;;10.20;99.90;;;;;;5091337;28;20197;-67
2021/10/01 02:47:13;;;;;;;15.70;11.70;;;10.20;99.90;;;;;;5090641;28;20225;-67
2021/10/01 02:49:40;;;;;;;16.37;10.90;;;10.20;99.90;;;;;;5090946;28;20212;-66
2021/10/01 02:52:12;;;;;;;13.83;11.13;;;10.20;99.90;;;;;;5081529;28;20717;-67
2021/10/01 02:54:49;;;;;;;16.57;11.60;;;10.20;99.90;;;;;;5077543;28;20303;-68
2021/10/01 02:57:20;;;;;;;17.00;12.03;;;10.20;99.90;;;;;;5090104;28;20204;-68
2021/10/01 02:59:49;;;;;;;19.90;12.13;;;10.20;99.90;;;;;;5090159;28;20196;-67
2021/10/01 03:02:17;;;;;;;16.20;11.73;;;10.20;99.90;;;;;;5091182;28;20236;-67
2021/10/01 03:04:49;;;;;;;19.43;11.60;;;10.20;99.90;;;;;;5091229;28;20211;-68
2021/10/01 03:07:17;;;;;;;18.30;11.73;;;10.20;99.90;;;;;;5090883;28;20212;-67
2021/10/01 03:09:49;;;;;;;18.27;12.47;;;10.10;99.90;;;;;;5090893;28;20204;-66
2021/10/01 03:12:19;;;;;;;16.07;11.87;;;10.10;99.90;;;;;;5090697;28;20205;-68
2021/10/01 03:14:47;;;;;;;16.53;11.57;;;10.10;99.90;;;;;;5090754;28;20216;-67
2021/10/01 03:17:14;;;;;;;15.87;12.03;;;10.10;99.90;;;;;;5090377;28;20649;-66
2021/10/01 03:19:42;;;;;;;19.67;12.37;;;10.00;99.90;;;;;;5090937;28;20649;-66
2021/10/01 03:22:10;;;;;;;18.17;11.70;;;10.10;99.90;;;;;;5090820;28;20205;-67
2021/10/01 03:24:40;;;;;;;18.43;11.97;;;10.00;99.90;;;;;;5090022;28;20209;-66
2021/10/01 03:27:08;;;;;;;16.63;11.47;;;10.00;99.90;;;;;;5090475;28;20297;-67
2021/10/01 03:29:37;;;;;;;17.87;12.93;;;9.90;99.90;;;;;;5090751;28;20708;-67
2021/10/01 03:32:05;;;;;;;18.17;13.03;;;9.80;99.90;;;;;;5092895;28;20587;-66
2021/10/01 03:34:33;;;;;;;15.17;11.37;;;9.80;99.90;;;;;;5093730;28;20212;-67
2021/10/01 03:37:00;;;;;;;15.20;11.73;;;9.80;99.90;;;;;;5093647;28;20315;-67
2021/10/01 03:39:27;;;;;;;16.40;12.07;;;9.90;99.90;;;;;;5090780;28;20208;-67
2021/10/01 03:41:54;;;;;;;17.37;12.73;;;9.80;99.90;;;;;;5094159;28;20635;-67
2021/10/01 03:44:22;;;;;;;17.43;12.07;;;9.80;99.90;;;;;;5092454;28;20208;-67
2021/10/01 03:46:49;;;;;;;16.23;11.93;;;9.70;99.90;;;;;;5093768;28;20207;-68
2021/10/01 03:49:16;;;;;;;14.50;11.50;;;9.80;99.90;;;;;;5094477;28;20215;-67
2021/10/01 03:51:43;;;;;;;14.10;11.90;;;9.90;99.90;;;;;;5094072;28;20215;-67
2021/10/01 03:54:11;;;;;;;18.87;12.33;;;9.80;99.90;;;;;;5093611;28;20204;-66
2021/10/01 03:56:38;;;;;;;19.47;12.03;;;9.80;99.90;;;;;;5093898;28;20595;-67
2021/10/01 03:59:05;;;;;;;16.83;11.93;;;9.80;99.90;;;;;;5094189;28;20688;-67
2021/10/01 04:01:33;;;;;;;16.70;11.53;;;9.80;99.90;;;;;;5087733;28;20208;-67
2021/10/01 04:04:00;;;;;;;15.43;12.07;;;9.80;99.90;;;;;;5086821;28;20197;-67
2021/10/01 04:06:27;;;;;;;16.83;12.87;;;9.80;99.90;;;;;;5093328;28;20197;-67
2021/10/01 04:08:54;;;;;;;18.07;12.63;;;9.80;99.90;;;;;;5093408;28;20217;-66
2021/10/01 04:11:21;;;;;;;15.33;12.00;;;9.80;99.90;;;;;;5093494;28;20200;-67
2021/10/01 04:13:48;;;;;;;17.27;12.60;;;9.80;99.90;;;;;;5093333;28;20196;-67
2021/10/01 04:16:15;;;;;;;15.40;12.30;;;9.80;99.90;;;;;;5092480;28;20227;-68
2021/10/01 04:18:44;;;;;;;19.23;10.87;;;9.80;99.90;;;;;;5093132;28;20668;-66
2021/10/01 04:21:11;;;;;;;18.07;11.63;;;9.80;99.90;;;;;;5093240;28;20208;-67
2021/10/01 04:23:41;;;;;;;16.67;11.27;;;9.80;99.90;;;;;;5093199;28;20215;-67
2021/10/01 04:26:08;;;;;;;18.43;10.83;;;9.70;99.90;;;;;;5092641;28;20683;-67
2021/10/01 04:28:35;;;;;;;14.13;10.30;;;9.70;99.90;;;;;;5092728;28;20238;-67
2021/10/01 04:31:02;;;;;;;16.87;10.70;;;9.80;99.90;;;;;;5093121;28;20299;-67
2021/10/01 04:33:32;;;;;;;14.93;10.83;;;9.70;99.90;;;;;;5093770;28;20266;-65
2021/10/01 04:36:01;;;;;;;14.73;10.60;;;9.70;99.90;;;;;;5093527;28;20229;-67
2021/10/01 04:38:28;;;;;;;16.43;11.93;;;9.80;99.90;;;;;;5086179;28;20204;-66
2021/10/01 04:40:55;;;;;;;18.20;11.80;;;9.70;99.90;;;;;;5093384;28;20219;-66
2021/10/01 04:43:22;;;;;;;16.80;11.83;;;9.80;99.90;;;;;;5092023;28;20212;-67
2021/10/01 04:45:50;;;;;;;20.90;12.80;;;9.70;99.90;;;;;;5081006;28;20269;-66
2021/10/01 04:48:17;;;;;;;19.57;12.77;;;9.70;99.90;;;;;;5092776;28;20214;-66
2021/10/01 04:50:44;;;;;;;16.80;11.00;;;9.70;99.90;;;;;;5090486;28;20290;-66
2021/10/01 04:53:12;;;;;;;20.63;12.03;;;9.80;99.90;;;;;;5080457;28;20204;-66
2021/10/01 04:55:39;;;;;;;19.77;11.77;;;9.70;99.90;;;;;;5092073;28;20216;-66
2021/10/01 04:58:07;;;;;;;19.90;12.50;;;9.80;99.90;;;;;;5091730;28;20209;-67
2021/10/01 05:00:34;;;;;;;20.60;13.40;;;9.70;99.90;;;;;;5092192;28;20219;-66
2021/10/01 05:03:01;;;;;;;18.20;11.80;;;9.80;99.90;;;;;;5092393;28;20201;-67
2021/10/01 05:05:28;;;;;;;18.73;12.43;;;9.80;99.90;;;;;;5093125;28;20204;-67
2021/10/01 05:07:55;;;;;;;18.20;12.73;;;9.80;99.90;;;;;;5092277;28;20217;-67
2021/10/01 05:10:24;;;;;;;16.80;12.57;;;9.80;99.90;;;;;;5091881;28;20210;-67
2021/10/01 05:12:51;;;;;;;16.73;12.00;;;8.70;99.90;;;;;;5092130;28;20215;-69
2021/10/01 05:15:19;;;;;;;14.97;11.87;;;9.80;99.90;;;;;;5088821;28;20697;-69
2021/10/01 05:17:46;;;;;;;17.27;10.80;;;9.90;99.90;;;;;;5093665;28;20258;-67
2021/10/01 05:20:14;;;;;;;16.43;11.47;;;9.90;99.90;;;;;;5092580;28;20640;-67
2021/10/01 05:22:41;;;;;;;20.77;12.90;;;9.90;99.90;;;;;;5092730;28;20213;-68
2021/10/01 05:25:10;;;;;;;17.33;12.13;;;9.90;99.90;;;;;;5093174;28;20201;-67
2021/10/01 05:27:38;;;;;;;16.83;11.27;;;10.00;99.90;;;;;;5089077;28;20228;-67
2021/10/01 05:30:06;;;;;;;16.87;12.67;;;10.00;99.90;;;;;;5091447;28;20680;-68
2021/10/01 05:32:34;;;;;;;16.73;11.50;;;10.00;99.90;;;;;;5093349;28;20295;-72
2021/10/01 05:35:01;;;;;;;16.03;11.60;;;10.00;99.90;;;;;;5089548;28;20210;-67
2021/10/01 05:37:28;;;;;;;17.50;11.80;;;10.10;99.90;;;;;;5077855;28;20229;-65
2021/10/01 05:39:55;;;;;;;16.93;11.63;;;10.20;99.90;;;;;;5089456;28;20236;-68
2021/10/01 05:42:22;;;;;;;14.60;10.40;;;10.20;99.90;;;;;;5092223;28;20665;-67
2021/10/01 05:44:50;;;;;;;16.27;11.37;;;10.20;99.90;;;;;;5091866;28;20661;-67
2021/10/01 05:47:17;;;;;;;19.33;11.70;;;10.30;99.90;;;;;;5091290;28;20236;-69
2021/10/01 05:49:45;;;;;;;15.80;10.77;;;10.30;99.90;;;;;;5091126;28;20295;-67
2021/10/01 05:52:18;;;;;;;16.20;11.87;;;10.50;99.90;;;;;;5085815;28;20715;-67
2021/10/01 05:54:45;;;;;;;14.10;10.87;;;10.60;99.90;;;;;;5091069;28;20233;-67
2021/10/01 05:57:13;;;;;;;15.47;11.10;;;10.70;99.90;;;;;;5090930;28;20238;-66
2021/10/01 05:59:42;;;;;;;14.73;11.60;;;10.80;99.90;;;;;;5089725;28;20204;-67
2021/10/01 06:02:13;;;;;;;14.00;11.03;;;10.70;99.90;;;;;;5083042;28;20215;-67
2021/10/01 06:04:40;;;;;;;15.67;12.17;;;10.80;99.90;;;;;;5079661;28;20718;-67
2021/10/01 06:07:08;;;;;;;18.50;11.67;;;10.60;99.90;;;;;;5084789;28;20200;-68
2021/10/01 06:09:35;;;;;;;18.50;12.87;;;10.60;99.90;;;;;;5079784;28;20316;-71
2021/10/01 06:12:02;;;;;;;17.30;11.70;;;10.60;99.90;;;;;;5083103;28;20209;-72
2021/10/01 06:14:29;;;;;;;14.87;11.70;;;10.70;99.90;;;;;;5091238;28;20295;-70
2021/10/01 06:16:57;;;;;;;16.37;11.30;;;10.70;99.90;;;;;;5091616;28;20660;-69
2021/10/01 06:19:25;;;;;;;15.33;10.43;;;10.70;99.90;;;;;;5088188;28;20272;-69
2021/10/01 06:21:54;;;;;;;14.07;11.10;;;10.80;99.90;;;;;;5087109;28;20236;-69
2021/10/01 06:24:21;;;;;;;15.40;12.07;;;10.80;99.90;;;;;;5092064;28;20240;-69
2021/10/01 06:26:49;;;;;;;14.37;12.10;;;10.80;99.90;;;;;;5091783;28;20235;-70
2021/10/01 06:29:16;;;;;;;14.70;11.70;;;10.80;99.90;;;;;;5084242;28;20204;-69
2021/10/01 06:31:44;;;;;;;16.47;12.47;;;10.80;99.90;;;;;;5091882;28;20230;-70
2021/10/01 06:34:11;;;;;;;15.30;11.23;;;10.90;99.90;;;;;;5092279;28;20205;-69
2021/10/01 06:36:40;;;;;;;13.43;11.10;;;10.90;99.90;;;;;;5086141;28;20324;-69
2021/10/01 06:39:08;;;;;;;15.77;11.50;;;10.90;99.90;;;;;;5091078;28;20291;-69
2021/10/01 06:41:35;;;;;;;17.97;11.83;;;11.00;99.90;;;;;;5091334;28;20204;-70
2021/10/01 06:44:04;;;;;;;13.03;11.63;;;11.10;99.90;;;;;;5087815;28;20204;-69
2021/10/01 06:46:37;;;;;;;15.57;11.97;;;11.10;99.90;;;;;;5079694;28;20268;-69
2021/10/01 06:49:18;;;;;;;15.10;11.63;;;11.20;99.90;;;;;;5088737;28;20227;-72
2021/10/01 07:36:19;;;;;;;17.70;12.40;;;13.10;99.90;;;;;;5086851;28;20224;-71
2021/10/01 08:20:19;;;;;;;19.60;14.17;;;15.20;99.90;;;;;;5085599;28;20767;-72
2021/10/01 08:22:46;;;;;;;18.83;13.87;;;15.30;99.90;;;;;;5093724;28;20661;-74
2021/10/01 08:25:13;;;;;;;20.58;16.30;;;15.50;99.90;;;;;;5092035;28;20527;-73
2021/10/01 08:27:41;;;;;;;25.33;15.17;;;15.60;99.90;;;;;;5087023;28;20326;-73
2021/10/01 08:30:11;;;;;;;18.57;14.23;;;15.80;99.90;;;;;;5093300;28;20226;-74
2021/10/01 08:32:41;;;;;;;22.73;14.67;;;15.90;99.90;;;;;;5089600;28;20236;-76
2021/10/01 08:35:10;;;;;;;23.27;16.53;;;16.10;99.90;;;;;;5092720;28;20192;-74
2021/10/01 08:37:37;;;;;;;23.77;16.73;;;16.20;99.90;;;;;;5080835;28;20259;-72
2021/10/01 08:40:05;;;;;;;27.50;18.53;;;16.30;99.90;;;;;;5086982;28;20205;-74
2021/10/01 08:42:33;;;;;;;28.03;19.60;;;16.40;99.90;;;;;;5087967;28;20257;-74
2021/10/01 08:45:00;;;;;;;33.00;21.23;;;16.50;99.90;;;;;;5088919;28;20247;-73
2021/10/01 08:47:29;;;;;;;27.93;19.13;;;16.70;99.90;;;;;;5083573;28;20284;-72
2021/10/01 08:50:00;;;;;;;33.30;21.10;;;16.90;99.90;;;;;;5085805;28;20206;-74
2021/10/01 08:52:27;;;;;;;31.00;20.43;;;17.10;99.90;;;;;;5079447;28;20205;-73
2021/10/01 08:54:54;;;;;;;29.70;20.03;;;17.30;99.90;;;;;;5085033;28;20217;-72
2021/10/01 08:57:21;;;;;;;32.63;20.45;;;17.50;99.90;;;;;;5088997;28;20212;-73
2021/10/01 08:59:48;;;;;;;26.30;19.63;;;18.00;99.90;;;;;;5085185;28;20204;-74
2021/10/01 09:02:15;;;;;;;26.85;19.30;;;19.60;99.90;;;;;;5092818;28;20217;-72
2021/10/01 09:04:44;;;;;;;28.95;20.23;;;22.70;99.90;;;;;;5093820;28;20235;-72
2021/10/01 09:07:11;;;;;;;26.10;20.45;;;26.20;91.90;;;;;;5087232;28;20240;-72
2021/10/01 09:09:40;;;;;;;28.67;20.27;;;29.20;70.10;;;;;;5089608;28;20201;-72
2021/10/01 09:12:08;;;;;;;28.50;21.85;;;31.50;57.20;;;;;;5092400;28;20319;-72
2021/10/01 09:14:47;;;;;;;25.95;21.35;;;33.30;51.30;;;;;;5091969;28;20271;-72
2021/10/01 09:17:17;;;;;;;28.15;20.40;;;34.90;46.20;;;;;;5087509;28;20365;-74
2021/10/01 09:19:46;;;;;;;26.50;21.40;;;35.50;43.70;;;;;;5083996;28;20476;-73
2021/10/01 09:22:25;;;;;;;28.10;21.23;;;35.70;42.80;;;;;;5083063;28;20215;-73
2021/10/01 09:24:52;;;;;;;25.02;20.63;;;36.00;41.00;;;;;;5079696;28;20203;-73
2021/10/01 09:27:33;;;;;;;24.15;21.05;;;36.00;40.80;;;;;;5082577;28;20334;-68
2021/10/01 09:30:00;;;;;;;25.80;22.80;;;35.70;40.10;;;;;;5077390;28;20290;-69
2021/10/01 09:32:27;;;;;;;28.35;22.58;;;35.30;40.60;;;;;;5081062;28;20209;-68
2021/10/01 09:34:55;;;;;;;24.23;21.63;;;35.00;40.70;;;;;;5081132;28;20742;-68
2021/10/01 09:37:29;;;;;;;27.35;22.88;;;35.10;40.20;;;;;;5079630;28;20225;-69
2021/10/01 09:39:58;;;;;;;24.77;20.58;;;35.40;40.60;;;;;;5082417;28;20684;-71
2021/10/01 09:42:30;;;;;;;28.15;22.10;;;36.30;39.10;;;;;;5086386;28;20227;-72
2021/10/01 09:44:59;;;;;;;26.52;22.58;;;36.80;38.00;;;;;;5087627;28;20662;-73
2021/10/01 09:47:30;;;;;;;26.50;20.35;;;37.50;37.20;;;;;;5088375;28;20232;-71
2021/10/01 09:50:01;;;;;;;21.45;18.17;;;39.00;36.10;;;;;;5079218;28;20205;-69
2021/10/01 09:52:41;;;;;;;21.83;18.23;;;40.40;34.60;;;;;;5086042;28;20213;-69
2021/10/01 09:55:10;;;;;;;18.85;16.95;;;41.10;32.80;;;;;;5086516;28;20206;-69
2021/10/01 09:57:38;;;;;;;18.30;15.48;;;41.50;32.30;;;;;;5084767;28;20216;-69
2021/10/01 10:00:07;;;;;;;17.65;15.80;;;42.10;31.50;;;;;;5086271;28;20710;-68
2021/10/01 10:02:37;;;;;;;19.60;15.73;;;42.70;30.40;;;;;;5086961;28;20721;-69
2021/10/01 10:05:07;;;;;;;17.85;15.20;;;43.60;29.70;;;;;;5079395;28;20216;-68
2021/10/01 10:07:39;;;;;;;17.23;15.23;;;43.70;28.90;;;;;;5077413;28;20203;-69
2021/10/01 10:10:08;;;;;;;17.88;16.10;;;43.70;28.90;;;;;;5085900;28;20265;-72
2021/10/01 10:12:39;;;;;;;17.25;15.35;;;43.50;28.80;;;;;;5083912;28;20621;-71
2021/10/01 10:15:12;;;;;;;16.33;14.60;;;43.10;29.00;;;;;;5082941;28;20570;-71
2021/10/01 10:17:47;;;;;;;17.42;15.35;;;43.30;29.00;;;;;;5090653;28;20216;-71
2021/10/01 10:20:17;;;;;;;17.52;14.40;;;43.80;28.60;;;;;;5089884;28;20678;-71
2021/10/01 10:22:44;;;;;;;16.10;14.57;;;43.70;28.20;;;;;;5086341;28;20727;-71
2021/10/01 10:25:11;;;;;;;18.92;14.25;;;43.40;28.40;;;;;;5089471;28;20219;-70
2021/10/01 10:27:38;;;;;;;15.48;13.93;;;43.20;28.60;;;;;;5086355;28;20234;-70
2021/10/01 10:30:07;;;;;;;16.83;13.93;;;43.10;28.40;;;;;;5088042;28;20267;-72
2021/10/01 10:32:34;;;;;;;15.52;13.77;;;43.00;28.50;;;;;;5084598;28;20287;-71
2021/10/01 10:35:04;;;;;;;14.77;13.27;;;43.20;28.60;;;;;;5078627;28;20205;-71
2021/10/01 10:37:40;;;;;;;14.88;13.38;;;43.30;28.30;;;;;;5084466;28;20294;-71
2021/10/01 10:40:09;;;;;;;13.32;11.82;;;44.00;27.80;;;;;;5078624;28;20650;-71
2021/10/01 10:42:39;;;;;;;11.85;9.55;;;44.60;27.40;;;;;;5089272;28;20291;-71
2021/10/01 10:45:19;;;;;;;12.40;11.13;;;44.60;26.90;;;;;;5082598;28;20227;-71
2021/10/01 10:47:54;;;;;;;11.45;10.25;;;44.70;27.00;;;;;;5086179;28;20634;-72
2021/10/01 10:50:45;;;;;;;11.88;10.20;;;45.30;26.80;;;;;;5086545;28;20265;-71
2021/10/01 10:53:32;;;;;;;12.30;11.10;;;46.00;26.20;;;;;;5078538;28;20213;-72
2021/10/01 10:56:23;;;;;;;11.93;10.75;;;46.10;25.90;;;;;;5074510;28;20291;-71
2021/10/01 10:58:52;;;;;;;10.48;9.48;;;46.70;25.80;;;;;;5059578;28;20772;-71
2021/10/01 11:01:39;;;;;;;10.75;9.20;;;47.50;25.40;;;;;;5090671;28;20211;-72
2021/10/01 11:04:27;;;;;;;9.73;8.82;;;48.10;25.30;;;;;;5080707;28;20668;-72
2021/10/01 11:06:54;;;;;;;8.98;8.13;;;48.50;24.90;;;;;;5077243;28;20203;-72
2021/10/01 11:09:29;;;;;;;9.90;8.90;;;48.40;24.70;;;;;;5080184;28;20200;-71
2021/10/01 11:11:58;;;;;;;10.50;8.55;;;48.70;24.70;;;;;;5086362;28;20306;-71
2021/10/01 11:14:28;;;;;;;8.48;7.57;;;49.10;24.50;;;;;;5089609;28;20208;-72
2021/10/01 11:17:21;;;;;;;9.73;8.73;;;48.80;24.90;;;;;;5080064;28;20228;-72
2021/10/01 11:19:54;;;;;;;7.78;7.07;;;49.10;24.20;;;;;;5083106;28;20574;-71
2021/10/01 11:22:33;;;;;;;9.70;7.60;;;49.30;24.10;;;;;;5078358;28;20211;-72
2021/10/01 11:25:06;;;;;;;10.85;7.45;;;48.50;24.00;;;;;;5082974;28;20606;-72
2021/10/01 11:27:33;;;;;;;8.68;6.78;;;47.40;24.60;;;;;;5082654;28;20236;-71
2021/10/01 11:30:00;;;;;;;8.15;7.35;;;46.10;24.70;;;;;;5080326;28;20295;-71
2021/10/01 11:32:31;;;;;;;7.65;6.80;;;44.70;25.50;;;;;;5077096;28;20207;-72
2021/10/01 11:35:00;;;;;;;11.70;7.70;;;43.70;26.00;;;;;;5072669;28;20562;-71
2021/10/01 11:37:30;;;;;;;9.07;7.75;;;42.50;26.80;;;;;;5081448;28;20231;-72
2021/10/01 11:39:59;;;;;;;12.38;8.13;;;41.00;27.70;;;;;;5080215;28;20620;-72
2021/10/01 11:42:30;;;;;;;9.55;7.68;;;40.00;28.70;;;;;;5090769;28;20661;-72
2021/10/01 11:45:06;;;;;;;8.30;7.30;;;39.80;29.30;;;;;;5082193;28;20209;-72
2021/10/01 11:47:33;;;;;;;6.45;5.85;;;40.40;28.90;;;;;;5077983;28;20207;-70
2021/10/01 11:50:00;;;;;;;10.88;6.75;;;40.10;28.50;;;;;;5072292;28;20220;-69
2021/10/01 11:52:28;;;;;;;8.85;6.82;;;39.10;29.00;;;;;;5077348;28;20702;-68
2021/10/01 11:54:58;;;;;;;9.70;6.00;;;37.50;29.50;;;;;;5084235;28;20213;-70
2021/10/01 11:57:35;;;;;;;6.97;5.70;;;35.70;31.70;;;;;;5077235;28;20543;-69
2021/10/01 12:00:04;;;;;;;8.35;6.57;;;34.30;33.10;;;;;;5080591;28;20205;-69
2021/10/01 12:02:34;;;;;;;7.55;5.65;;;33.20;34.90;;;;;;5079102;28;20197;-69
2021/10/01 12:05:18;;;;;;;8.02;5.53;;;32.00;35.80;;;;;;5092315;28;20214;-76
2021/10/01 12:07:46;;;;;;;5.50;4.95;;;31.20;36.90;;;;;;5094819;28;20203;-74
2021/10/01 12:10:13;;;;;;;6.30;5.38;;;30.50;37.60;;;;;;5082178;28;20235;-75
2021/10/01 12:13:04;;;;;;;7.53;5.28;;;29.90;38.40;;;;;;5085641;28;20282;-75
2021/10/01 12:15:36;;;;;;;8.95;5.00;;;29.20;39.30;;;;;;5086059;28;20241;-76
2021/10/01 12:18:03;;;;;;;5.65;4.82;;;28.60;40.20;;;;;;5081687;28;20236;-76
2021/10/01 12:20:30;;;;;;;7.55;5.30;;;28.00;41.20;;;;;;5078202;28;20251;-75
2021/10/01 12:22:57;;;;;;;7.28;6.50;;;27.50;42.40;;;;;;5086034;28;20232;-77
2021/10/01 12:25:26;;;;;;;9.05;6.60;;;27.10;43.40;;;;;;5089019;28;20205;-75
2021/10/01 12:27:54;;;;;;;13.80;8.10;;;26.80;44.30;;;;;;5090576;28;20225;-75
2021/10/01 12:30:23;;;;;;;10.50;8.30;;;26.20;45.40;;;;;;5089844;28;20209;-77
2021/10/01 12:32:50;;;;;;;8.85;7.95;;;25.50;47.00;;;;;;5093097;28;20208;-77
2021/10/01 12:35:17;;;;;;;10.00;8.98;;;24.90;48.70;;;;;;5085657;28;20657;-77
2021/10/01 12:37:44;;;;;;;13.38;10.02;;;24.40;49.70;;;;;;5092682;28;20220;-74
2021/10/01 12:40:13;;;;;;;12.55;9.10;;;24.00;51.50;;;;;;5076281;28;20658;-72
2021/10/01 12:42:41;;;;;;;14.77;10.80;;;23.50;52.40;;;;;;5078299;28;20245;-72
2021/10/01 12:45:11;;;;;;;11.93;10.43;;;23.20;53.40;;;;;;5079114;28;20209;-71
2021/10/01 12:47:41;;;;;;;9.75;8.75;;;22.90;54.50;;;;;;5078685;28;20218;-71
2021/10/01 12:50:10;;;;;;;12.32;9.52;;;22.80;54.80;;;;;;5088470;28;20209;-71
2021/10/01 12:52:39;;;;;;;12.93;9.60;;;22.70;54.40;;;;;;5093625;28;20279;-71
2021/10/01 12:55:07;;;;;;;14.57;9.88;;;22.70;55.10;;;;;;5093671;28;20204;-72
2021/10/01 12:57:37;;;;;;;12.63;10.13;;;22.70;55.60;;;;;;5093141;28;20220;-72
2021/10/01 13:00:18;;;;;;;11.45;9.95;;;22.60;55.50;;;;;;5091923;28;20250;-71
2021/10/01 13:02:48;;;;;;;13.07;10.38;;;22.60;55.80;;;;;;5092952;28;20284;-72
2021/10/01 13:05:21;;;;;;;12.82;10.55;;;22.40;55.80;;;;;;5081244;28;20204;-72
2021/10/01 13:07:50;;;;;;;13.00;10.20;;;22.30;57.10;;;;;;5080842;28;20205;-71
2021/10/01 13:10:32;;;;;;;13.45;9.55;;;22.20;56.50;;;;;;5084388;28;20219;-71
2021/10/01 13:13:02;;;;;;;12.05;8.88;;;22.10;56.90;;;;;;5076239;28;20270;-72
2021/10/01 13:15:48;;;;;;;14.95;10.25;;;22.20;57.40;;;;;;5083362;28;20207;-71
2021/10/01 13:18:27;;;;;;;8.48;7.22;;;22.20;57.50;;;;;;5091998;28;20230;-72
2021/10/01 13:20:56;;;;;;;11.07;8.52;;;22.20;56.90;;;;;;5092151;28;20208;-70
2021/10/01 13:23:32;;;;;;;10.88;8.80;;;22.20;56.70;;;;;;5090063;28;20571;-71
2021/10/01 13:26:01;;;;;;;11.75;7.95;;;22.00;56.70;;;;;;5091878;28;20197;-70
2021/10/01 13:28:36;;;;;;;10.77;7.63;;;21.80;56.20;;;;;;5082391;28;20304;-71
2021/10/01 13:31:03;;;;;;;7.78;5.53;;;21.70;55.60;;;;;;5089694;28;20299;-71
2021/10/01 13:33:32;;;;;;;10.90;6.38;;;21.60;55.30;;;;;;5083554;28;20266;-72
2021/10/01 13:35:59;;;;;;;8.82;5.70;;;21.50;54.90;;;;;;5081088;28;20303;-70
2021/10/01 13:38:29;;;;;;;8.60;5.32;;;21.30;54.70;;;;;;5088209;28;20723;-74
2021/10/01 13:40:56;;;;;;;8.60;5.78;;;21.00;55.00;;;;;;5082709;28;20217;-71
2021/10/01 13:43:23;;;;;;;8.05;5.85;;;20.80;55.40;;;;;;5079608;28;20205;-70
2021/10/01 13:45:50;;;;;;;9.70;5.50;;;20.50;55.50;;;;;;5086280;28;20741;-72
2021/10/01 13:48:17;;;;;;;7.07;5.75;;;20.10;56.10;;;;;;5091700;28;20243;-73
2021/10/01 13:50:46;;;;;;;7.05;5.55;;;19.70;57.60;;;;;;5089666;28;20201;-72
2021/10/01 13:53:12;;;;;;;9.68;5.95;;;19.30;57.70;;;;;;5081318;28;20568;-72
2021/10/01 13:55:39;;;;;;;8.32;5.90;;;18.90;58.60;;;;;;5092834;28;20240;-73
2021/10/01 13:58:07;;;;;;;7.97;5.40;;;18.70;59.20;;;;;;5093332;28;20634;-72
2021/10/01 14:00:34;;;;;;;8.13;5.78;;;18.40;59.90;;;;;;5089230;28;20228;-71
2021/10/01 14:03:01;;;;;;;10.85;5.65;;;18.20;60.70;;;;;;5086500;28;20207;-73
2021/10/01 14:05:28;;;;;;;6.25;5.35;;;18.10;61.10;;;;;;5093084;28;20289;-73
2021/10/01 14:07:57;;;;;;;7.72;5.22;;;17.90;61.40;;;;;;5087656;28;20300;-71
2021/10/01 14:10:26;;;;;;;6.80;4.70;;;17.80;61.80;;;;;;5085243;28;20653;-72
2021/10/01 14:12:53;;;;;;;6.10;5.40;;;17.70;61.80;;;;;;5090504;28;20204;-73